createdAt,value
2019-04-27T00:00:14.714Z,93.60
2019-04-27T00:01:14.703Z,93.88
2019-04-27T00:02:18.126Z,93.41
2019-04-27T00:03:14.668Z,93.32
2019-04-27T00:04:16.185Z,93.22
2019-04-27T00:05:14.608Z,93.12
2019-04-27T00:06:14.589Z,93.03
2019-04-27T00:07:16.964Z,93.32
2019-04-27T00:08:14.549Z,93.41
2019-04-27T00:09:14.526Z,93.12
2019-04-27T00:10:14.508Z,93.12
2019-04-27T00:11:14.492Z,93.12
2019-04-27T00:12:16.463Z,93.03
2019-04-27T00:13:15.148Z,93.12
2019-04-27T00:14:17.960Z,93.03
2019-04-27T00:15:14.411Z,92.74
2019-04-27T00:16:14.403Z,92.93
2019-04-27T00:17:14.365Z,93.51
2019-04-27T00:18:16.920Z,93.12
2019-04-27T00:19:14.334Z,93.22
2019-04-27T00:20:14.308Z,93.03
2019-04-27T00:21:15.237Z,92.84
2019-04-27T00:22:14.724Z,93.03
2019-04-27T00:23:14.937Z,93.03
2019-04-27T00:24:14.222Z,93.32
2019-04-27T00:25:14.203Z,93.32
2019-04-27T00:26:14.180Z,93.51
2019-04-27T00:27:14.189Z,93.22
2019-04-27T00:28:14.144Z,93.79
2019-04-27T00:29:14.122Z,93.79
2019-04-27T00:30:14.098Z,93.98
2019-04-27T00:31:14.088Z,93.98
2019-04-27T00:32:14.065Z,93.98
2019-04-27T00:33:14.039Z,93.70
2019-04-27T00:34:15.142Z,93.51
2019-04-27T00:35:13.995Z,93.60
2019-04-27T00:36:13.977Z,93.88
2019-04-27T00:37:13.964Z,93.88
2019-04-27T00:38:13.936Z,93.79
2019-04-27T00:39:13.952Z,93.79
2019-04-27T00:40:14.782Z,93.41
2019-04-27T00:41:14.295Z,93.41
2019-04-27T00:42:13.858Z,93.41
2019-04-27T00:43:14.099Z,93.32
2019-04-27T00:44:13.812Z,93.22
2019-04-27T00:45:13.792Z,93.88
2019-04-27T00:46:14.016Z,94.17
2019-04-27T00:47:13.868Z,94.41
2019-04-27T00:48:13.731Z,94.60
2019-04-27T00:49:13.835Z,94.51
2019-04-27T00:50:13.690Z,94.60
2019-04-27T00:51:14.512Z,94.60
2019-04-27T00:52:13.999Z,94.32
2019-04-27T00:53:13.629Z,94.70
2019-04-27T00:54:13.694Z,94.74
2019-04-27T00:55:13.590Z,94.98
2019-04-27T00:56:13.984Z,94.56
2019-04-27T00:57:13.545Z,94.51
2019-04-27T00:58:13.526Z,94.70
2019-04-27T00:59:13.778Z,94.32
2019-04-27T01:00:13.538Z,94.41
2019-04-27T01:01:14.958Z,94.32
2019-04-27T01:02:13.558Z,94.56
2019-04-27T01:03:13.985Z,94.60
2019-04-27T01:04:13.653Z,94.60
2019-04-27T01:05:13.386Z,95.27
2019-04-27T01:06:14.801Z,95.17
2019-04-27T01:07:14.196Z,95.08
2019-04-27T01:08:13.924Z,94.98
2019-04-27T01:09:13.458Z,94.89
2019-04-27T01:10:13.545Z,94.70
2019-04-27T01:11:14.053Z,94.98
2019-04-27T01:12:13.645Z,94.98
2019-04-27T01:13:13.357Z,95.08
2019-04-27T01:14:13.206Z,94.70
2019-04-27T01:15:13.748Z,94.70
2019-04-27T01:16:15.629Z,94.70
2019-04-27T01:17:13.136Z,95.17
2019-04-27T01:18:15.368Z,94.98
2019-04-27T01:19:13.097Z,95.36
2019-04-27T01:20:13.073Z,95.94
2019-04-27T01:21:13.059Z,95.65
2019-04-27T01:22:13.033Z,96.03
2019-04-27T01:23:13.013Z,95.84
2019-04-27T01:24:12.997Z,95.75
2019-04-27T01:25:12.973Z,96.22
2019-04-27T01:26:12.957Z,95.75
2019-04-27T01:27:12.936Z,95.84
2019-04-27T01:28:12.912Z,95.75
2019-04-27T01:29:12.892Z,95.65
2019-04-27T01:30:12.886Z,96.03
2019-04-27T01:31:12.850Z,96.22
2019-04-27T01:32:12.829Z,96.22
2019-04-27T01:33:12.807Z,96.12
2019-04-27T01:34:12.792Z,96.51
2019-04-27T01:35:12.765Z,95.84
2019-04-27T01:36:12.746Z,95.75
2019-04-27T01:37:12.726Z,96.51
2019-04-27T01:38:12.711Z,96.22
2019-04-27T01:39:12.681Z,95.94
2019-04-27T01:40:12.660Z,96.51
2019-04-27T01:41:12.640Z,96.22
2019-04-27T01:42:12.623Z,95.94
2019-04-27T01:43:12.599Z,95.94
2019-04-27T01:44:12.580Z,95.84
2019-04-27T01:45:12.557Z,95.75
2019-04-27T01:46:12.544Z,95.75
2019-04-27T01:47:12.517Z,95.98
2019-04-27T01:48:23.116Z,95.75
2019-04-27T01:49:12.474Z,95.89
2019-04-27T01:50:12.461Z,96.41
2019-04-27T01:51:12.434Z,96.27
2019-04-27T01:52:12.413Z,96.22
2019-04-27T01:53:12.394Z,96.55
2019-04-27T01:54:12.372Z,96.46
2019-04-27T01:55:12.350Z,95.98
2019-04-27T01:56:12.330Z,96.08
2019-04-27T01:57:12.309Z,95.98
2019-04-27T01:58:12.288Z,96.36
2019-04-27T01:59:12.267Z,95.98
2019-04-27T02:00:12.251Z,95.79
2019-04-27T02:01:12.224Z,95.98
2019-04-27T02:02:12.203Z,95.98
2019-04-27T02:03:12.184Z,96.17
2019-04-27T02:04:12.165Z,96.08
2019-04-27T02:05:12.145Z,95.98
2019-04-27T02:06:12.120Z,96.17
2019-04-27T02:07:12.105Z,95.98
2019-04-27T02:08:12.082Z,96.41
2019-04-27T02:09:12.058Z,96.17
2019-04-27T02:10:12.038Z,96.27
2019-04-27T02:11:12.017Z,96.12
2019-04-27T02:12:12.006Z,95.84
2019-04-27T02:13:11.976Z,95.65
2019-04-27T02:14:11.964Z,95.56
2019-04-27T02:15:11.936Z,95.51
2019-04-27T02:16:11.914Z,95.84
2019-04-27T02:17:11.894Z,96.12
2019-04-27T02:18:11.871Z,96.12
2019-04-27T02:19:11.852Z,95.94
2019-04-27T02:20:11.834Z,95.94
2019-04-27T02:21:11.808Z,95.79
2019-04-27T02:22:11.789Z,95.89
2019-04-27T02:23:11.769Z,96.08
2019-04-27T02:24:11.749Z,95.98
2019-04-27T02:25:11.732Z,96.75
2019-04-27T02:26:11.708Z,96.65
2019-04-27T02:27:11.686Z,96.84
2019-04-27T02:28:11.662Z,96.65
2019-04-27T02:29:11.653Z,96.65
2019-04-27T02:30:11.884Z,96.17
2019-04-27T02:31:11.615Z,96.84
2019-04-27T02:32:11.588Z,96.75
2019-04-27T02:33:12.832Z,95.98
2019-04-27T02:34:11.540Z,95.98
2019-04-27T02:35:11.522Z,96.27
2019-04-27T02:36:14.813Z,95.89
2019-04-27T02:37:11.484Z,96.17
2019-04-27T02:38:11.457Z,95.98
2019-04-27T02:39:11.437Z,95.51
2019-04-27T02:40:11.419Z,95.70
2019-04-27T02:41:11.404Z,95.51
2019-04-27T02:42:11.372Z,95.51
2019-04-27T02:43:11.350Z,95.51
2019-04-27T02:44:11.332Z,95.89
2019-04-27T02:45:11.312Z,95.70
2019-04-27T02:46:11.290Z,95.98
2019-04-27T02:47:11.306Z,96.46
2019-04-27T02:48:11.249Z,96.27
2019-04-27T02:49:11.230Z,95.89
2019-04-27T02:50:11.223Z,95.98
2019-04-27T02:51:11.188Z,95.98
2019-04-27T02:52:11.163Z,96.46
2019-04-27T02:53:11.335Z,96.46
2019-04-27T02:54:12.593Z,95.98
2019-04-27T02:55:11.103Z,96.08
2019-04-27T02:56:11.084Z,95.89
2019-04-27T02:57:11.060Z,96.17
2019-04-27T02:58:12.994Z,96.27
2019-04-27T02:59:12.067Z,96.27
2019-04-27T03:00:11.020Z,95.98
2019-04-27T03:01:10.993Z,95.60
2019-04-27T03:02:10.986Z,95.70
2019-04-27T03:03:10.943Z,95.98
2019-04-27T03:04:10.914Z,95.79
2019-04-27T03:05:13.071Z,95.98
2019-04-27T03:06:10.877Z,95.98
2019-04-27T03:07:11.630Z,96.27
2019-04-27T03:08:10.829Z,96.36
2019-04-27T03:09:10.811Z,95.70
2019-04-27T03:10:10.793Z,95.98
2019-04-27T03:11:10.771Z,96.08
2019-04-27T03:12:10.755Z,96.36
2019-04-27T03:13:11.236Z,96.75
2019-04-27T03:14:28.012Z,96.46
2019-04-27T03:15:10.687Z,95.89
2019-04-27T03:16:11.357Z,95.98
2019-04-27T03:17:10.642Z,95.98
2019-04-27T03:18:10.622Z,96.27
2019-04-27T03:19:17.775Z,96.27
2019-04-27T03:20:10.738Z,96.08
2019-04-27T03:21:13.022Z,96.27
2019-04-27T03:22:10.538Z,96.08
2019-04-27T03:23:10.520Z,95.79
2019-04-27T03:24:10.496Z,96.08
2019-04-27T03:25:14.722Z,95.79
2019-04-27T03:26:10.802Z,95.22
2019-04-27T03:27:10.434Z,95.89
2019-04-27T03:28:10.863Z,95.60
2019-04-27T03:29:10.389Z,95.32
2019-04-27T03:30:12.324Z,95.51
2019-04-27T03:31:13.590Z,95.89
2019-04-27T03:32:12.558Z,95.60
2019-04-27T03:33:11.943Z,95.22
2019-04-27T03:34:15.704Z,95.22
2019-04-27T03:35:12.920Z,95.60
2019-04-27T03:36:12.891Z,95.51
2019-04-27T03:37:10.470Z,95.60
2019-04-27T03:38:12.472Z,95.60
2019-04-27T03:39:10.344Z,95.22
2019-04-27T03:40:10.444Z,95.89
2019-04-27T03:41:10.141Z,95.22
2019-04-27T03:42:10.555Z,95.51
2019-04-27T03:43:11.705Z,95.41
2019-04-27T03:44:10.076Z,95.51
2019-04-27T03:45:11.010Z,95.51
2019-04-27T03:46:10.437Z,94.84
2019-04-27T03:47:12.650Z,94.74
2019-04-27T03:48:10.384Z,95.12
2019-04-27T03:49:20.308Z,94.93
2019-04-27T03:50:10.434Z,95.22
2019-04-27T03:51:10.338Z,95.12
2019-04-27T03:52:09.916Z,95.51
2019-04-27T03:53:10.427Z,95.22
2019-04-27T03:54:10.751Z,95.41
2019-04-27T03:55:10.431Z,95.32
2019-04-27T03:56:10.257Z,95.32
2019-04-27T03:57:10.104Z,94.93
2019-04-27T03:58:12.038Z,95.51
2019-04-27T03:59:10.276Z,95.32
2019-04-27T04:00:10.220Z,95.32
2019-04-27T04:01:10.538Z,95.12
2019-04-27T04:02:10.266Z,95.41
2019-04-27T04:03:10.677Z,95.12
2019-04-27T04:04:10.601Z,95.12
2019-04-27T04:05:09.992Z,95.03
2019-04-27T04:06:10.765Z,95.41
2019-04-27T04:07:09.720Z,95.03
2019-04-27T04:08:10.759Z,94.84
2019-04-27T04:09:10.322Z,95.22
2019-04-27T04:10:10.725Z,95.32
2019-04-27T04:11:10.279Z,95.51
2019-04-27T04:12:09.727Z,95.12
2019-04-27T04:13:10.807Z,94.93
2019-04-27T04:14:10.125Z,95.12
2019-04-27T04:15:10.050Z,95.03
2019-04-27T04:16:10.891Z,95.32
2019-04-27T04:17:12.417Z,95.12
2019-04-27T04:18:09.852Z,95.12
2019-04-27T04:19:09.960Z,95.51
2019-04-27T04:20:10.142Z,95.12
2019-04-27T04:21:09.632Z,95.51
2019-04-27T04:22:10.319Z,94.93
2019-04-27T04:23:10.568Z,95.60
2019-04-27T04:24:11.869Z,95.79
2019-04-27T04:25:10.805Z,95.51
2019-04-27T04:26:09.868Z,95.60
2019-04-27T04:27:09.948Z,95.51
2019-04-27T04:28:09.486Z,95.51
2019-04-27T04:29:10.344Z,95.79
2019-04-27T04:30:11.811Z,95.60
2019-04-27T04:31:13.395Z,95.32
2019-04-27T04:32:10.624Z,95.60
2019-04-27T04:33:10.193Z,95.60
2019-04-27T04:34:09.701Z,95.79
2019-04-27T04:35:10.307Z,95.22
2019-04-27T04:36:10.148Z,95.41
2019-04-27T04:37:09.335Z,95.12
2019-04-27T04:38:10.462Z,95.12
2019-04-27T04:39:12.039Z,95.03
2019-04-27T04:40:09.819Z,95.12
2019-04-27T04:41:09.590Z,95.03
2019-04-27T04:42:10.191Z,94.46
2019-04-27T04:43:10.736Z,94.56
2019-04-27T04:44:09.768Z,94.84
2019-04-27T04:45:10.611Z,94.93
2019-04-27T04:46:12.787Z,95.12
2019-04-27T04:47:10.328Z,94.93
2019-04-27T04:48:09.858Z,95.03
2019-04-27T04:49:09.416Z,95.03
2019-04-27T04:50:14.727Z,95.22
2019-04-27T04:51:10.120Z,95.12
2019-04-27T04:52:09.643Z,94.93
2019-04-27T04:53:12.186Z,95.12
2019-04-27T04:54:09.514Z,94.46
2019-04-27T04:55:10.172Z,94.65
2019-04-27T04:56:10.511Z,95.22
2019-04-27T04:57:09.296Z,95.12
2019-04-27T04:58:09.357Z,94.46
2019-04-27T04:59:10.111Z,94.56
2019-04-27T05:00:09.858Z,94.08
2019-04-27T05:01:09.899Z,94.27
2019-04-27T05:02:10.633Z,94.27
2019-04-27T05:03:09.400Z,93.98
2019-04-27T05:04:09.093Z,94.46
2019-04-27T05:05:09.395Z,94.46
2019-04-27T05:06:08.883Z,94.27
2019-04-27T05:07:09.244Z,93.89
2019-04-27T05:08:09.114Z,94.03
2019-04-27T05:09:09.277Z,93.84
2019-04-27T05:10:09.034Z,93.37
2019-04-27T05:11:09.617Z,93.17
2019-04-27T05:12:08.925Z,93.46
2019-04-27T05:13:09.324Z,93.08
2019-04-27T05:14:09.856Z,93.17
2019-04-27T05:15:09.176Z,92.98
2019-04-27T05:16:08.929Z,93.17
2019-04-27T05:17:09.491Z,93.08
2019-04-27T05:18:09.077Z,93.17
2019-04-27T05:19:11.120Z,93.27
2019-04-27T05:20:16.632Z,93.93
2019-04-27T05:21:08.777Z,93.55
2019-04-27T05:22:09.312Z,93.27
2019-04-27T05:23:09.607Z,93.46
2019-04-27T05:24:09.349Z,93.08
2019-04-27T05:25:09.296Z,93.08
2019-04-27T05:26:09.093Z,92.32
2019-04-27T05:27:09.246Z,92.69
2019-04-27T05:28:09.593Z,92.69
2019-04-27T05:29:09.100Z,93.08
2019-04-27T05:30:09.318Z,92.89
2019-04-27T05:31:09.106Z,92.98
2019-04-27T05:32:09.128Z,92.69
2019-04-27T05:33:08.924Z,92.36
2019-04-27T05:34:09.387Z,92.08
2019-04-27T05:35:08.793Z,92.55
2019-04-27T05:36:09.205Z,93.12
2019-04-27T05:37:08.949Z,92.55
2019-04-27T05:38:12.852Z,92.46
2019-04-27T05:39:09.637Z,92.84
2019-04-27T05:40:09.155Z,92.36
2019-04-27T05:41:08.523Z,91.50
2019-04-27T05:42:12.445Z,91.31
2019-04-27T05:43:09.097Z,90.84
2019-04-27T05:44:10.913Z,91.13
2019-04-27T05:45:09.213Z,90.93
2019-04-27T05:46:09.961Z,90.84
2019-04-27T05:47:09.969Z,91.41
2019-04-27T05:48:09.299Z,90.93
2019-04-27T05:49:09.404Z,91.31
2019-04-27T05:50:09.012Z,91.22
2019-04-27T05:51:09.086Z,91.60
2019-04-27T05:52:08.578Z,91.79
2019-04-27T05:53:08.686Z,91.22
2019-04-27T05:54:08.969Z,91.41
2019-04-27T05:55:08.700Z,91.13
2019-04-27T05:56:07.301Z,91.22
2019-04-27T05:57:07.277Z,91.69
2019-04-27T05:58:07.258Z,91.88
2019-04-27T05:59:09.012Z,92.08
2019-04-27T06:00:09.033Z,91.69
2019-04-27T06:01:07.196Z,91.13
2019-04-27T06:02:09.137Z,91.83
2019-04-27T06:03:08.991Z,91.55
2019-04-27T06:04:08.852Z,91.55
2019-04-27T06:05:08.839Z,91.36
2019-04-27T06:06:07.098Z,90.88
2019-04-27T06:07:09.101Z,91.74
2019-04-27T06:08:08.684Z,91.07
2019-04-27T06:09:07.025Z,91.17
2019-04-27T06:10:07.004Z,91.17
2019-04-27T06:11:06.983Z,90.69
2019-04-27T06:12:06.962Z,90.59
2019-04-27T06:13:08.468Z,90.59
2019-04-27T06:14:06.919Z,90.88
2019-04-27T06:15:06.899Z,90.31
2019-04-27T06:16:06.880Z,90.50
2019-04-27T06:17:06.856Z,90.50
2019-04-27T06:18:06.837Z,91.27
2019-04-27T06:19:06.815Z,91.74
2019-04-27T06:20:06.795Z,90.88
2019-04-27T06:21:06.774Z,91.31
2019-04-27T06:22:06.762Z,90.93
2019-04-27T06:23:06.741Z,89.50
2019-04-27T06:24:08.669Z,89.02
2019-04-27T06:25:06.696Z,88.92
2019-04-27T06:26:09.204Z,89.02
2019-04-27T06:27:06.650Z,88.35
2019-04-27T06:28:06.629Z,88.83
2019-04-27T06:29:06.613Z,88.54
2019-04-27T06:30:06.589Z,88.35
2019-04-27T06:31:06.574Z,88.45
2019-04-27T06:32:06.553Z,89.31
2019-04-27T06:33:06.536Z,88.83
2019-04-27T06:34:06.506Z,88.92
2019-04-27T06:35:06.483Z,88.78
2019-04-27T06:36:06.466Z,88.01
2019-04-27T06:37:06.449Z,87.68
2019-04-27T06:38:06.431Z,88.45
2019-04-27T06:39:06.402Z,88.49
2019-04-27T06:40:06.390Z,89.16
2019-04-27T06:41:06.361Z,89.83
2019-04-27T06:42:16.662Z,89.64
2019-04-27T06:43:06.321Z,89.25
2019-04-27T06:44:06.297Z,90.02
2019-04-27T06:45:06.277Z,89.64
2019-04-27T06:46:06.257Z,89.25
2019-04-27T06:47:06.236Z,88.97
2019-04-27T06:48:06.220Z,88.97
2019-04-27T06:49:06.194Z,88.49
2019-04-27T06:50:06.174Z,88.30
2019-04-27T06:51:06.156Z,87.54
2019-04-27T06:52:06.136Z,87.35
2019-04-27T06:53:06.114Z,87.44
2019-04-27T06:54:06.093Z,88.40
2019-04-27T06:55:06.334Z,88.59
2019-04-27T06:56:06.053Z,89.06
2019-04-27T06:57:06.030Z,88.68
2019-04-27T06:58:06.008Z,88.59
2019-04-27T06:59:05.996Z,88.40
2019-04-27T07:00:05.976Z,88.87
2019-04-27T07:01:05.947Z,87.73
2019-04-27T07:02:05.922Z,88.20
2019-04-27T07:03:05.912Z,86.96
2019-04-27T07:04:05.896Z,86.77
2019-04-27T07:05:05.868Z,88.30
2019-04-27T07:06:05.849Z,88.97
2019-04-27T07:07:05.830Z,87.82
2019-04-27T07:08:05.801Z,87.63
2019-04-27T07:09:05.780Z,88.30
2019-04-27T07:10:05.760Z,89.25
2019-04-27T07:11:05.760Z,88.97
2019-04-27T07:12:05.747Z,89.54
2019-04-27T07:13:05.709Z,88.40
2019-04-27T07:14:05.677Z,88.49
2019-04-27T07:15:05.675Z,88.68
2019-04-27T07:16:05.637Z,88.49
2019-04-27T07:17:05.621Z,88.97
2019-04-27T07:18:05.596Z,88.59
2019-04-27T07:19:05.583Z,88.11
2019-04-27T07:20:05.554Z,88.20
2019-04-27T07:21:16.167Z,88.49
2019-04-27T07:22:05.518Z,88.40
2019-04-27T07:23:05.492Z,88.40
2019-04-27T07:24:05.486Z,89.45
2019-04-27T07:25:05.467Z,88.97
2019-04-27T07:26:05.447Z,87.82
2019-04-27T07:27:05.418Z,88.30
2019-04-27T07:28:05.396Z,88.40
2019-04-27T07:29:05.376Z,88.45
2019-04-27T07:30:05.354Z,88.78
2019-04-27T07:31:05.342Z,89.35
2019-04-27T07:32:05.316Z,89.64
2019-04-27T07:33:05.293Z,90.02
2019-04-27T07:34:05.274Z,89.06
2019-04-27T07:35:05.264Z,88.97
2019-04-27T07:36:05.232Z,88.68
2019-04-27T07:37:05.218Z,88.40
2019-04-27T07:38:05.212Z,89.25
2019-04-27T07:39:05.169Z,88.59
2019-04-27T07:40:05.154Z,88.30
2019-04-27T07:41:05.135Z,88.49
2019-04-27T07:42:05.117Z,88.87
2019-04-27T07:43:05.090Z,90.50
2019-04-27T07:44:05.072Z,89.54
2019-04-27T07:45:05.050Z,88.68
2019-04-27T07:46:05.040Z,89.06
2019-04-27T07:47:05.005Z,89.45
2019-04-27T07:48:04.985Z,89.06
2019-04-27T07:49:04.967Z,89.35
2019-04-27T07:50:04.945Z,89.54
2019-04-27T07:51:04.925Z,88.97
2019-04-27T07:52:04.903Z,88.73
2019-04-27T07:53:04.886Z,89.88
2019-04-27T07:54:04.872Z,90.73
2019-04-27T07:55:04.843Z,91.31
2019-04-27T07:56:04.822Z,91.78
2019-04-27T07:57:04.805Z,91.78
2019-04-27T07:58:05.149Z,93.22
2019-04-27T07:59:04.772Z,93.88
2019-04-27T08:00:04.741Z,94.07
2019-04-27T08:01:04.726Z,94.84
2019-04-27T08:02:04.699Z,94.93
2019-04-27T08:03:04.675Z,95.89
2019-04-27T08:04:04.661Z,96.80
2019-04-27T08:05:04.635Z,97.32
2019-04-27T08:06:04.621Z,98.32
2019-04-27T08:07:04.595Z,98.27
2019-04-27T08:08:04.591Z,98.37
2019-04-27T08:09:04.557Z,99.61
2019-04-27T08:10:04.561Z,99.99
2019-04-27T08:11:04.514Z,99.85
2019-04-27T08:12:04.499Z,99.99
2019-04-27T08:13:04.467Z,99.99
2019-04-27T08:14:04.450Z,99.99
2019-04-27T08:15:04.430Z,99.99
2019-04-27T08:16:04.411Z,99.99
2019-04-27T08:17:04.389Z,99.99
2019-04-27T08:18:04.370Z,99.99
2019-04-27T08:19:04.347Z,99.99
2019-04-27T08:20:04.327Z,99.99
2019-04-27T08:21:04.305Z,99.99
2019-04-27T08:22:04.288Z,99.99
2019-04-27T08:23:04.262Z,99.99
2019-04-27T08:24:04.248Z,99.99
2019-04-27T08:25:04.220Z,99.99
2019-04-27T08:26:04.201Z,99.99
2019-04-27T08:27:04.181Z,99.99
2019-04-27T08:28:04.165Z,99.99
2019-04-27T08:29:04.139Z,99.99
2019-04-27T08:30:04.118Z,99.99
2019-04-27T08:31:04.097Z,99.99
2019-04-27T08:32:04.084Z,99.99
2019-04-27T08:33:04.056Z,99.99
2019-04-27T08:34:04.034Z,99.99
2019-04-27T08:35:04.014Z,99.99
2019-04-27T08:36:03.994Z,99.99
2019-04-27T08:37:03.971Z,99.99
2019-04-27T08:38:03.955Z,99.99
2019-04-27T08:39:03.932Z,99.99
2019-04-27T08:40:03.921Z,99.99
2019-04-27T08:41:03.889Z,99.99
2019-04-27T08:42:03.874Z,99.99
2019-04-27T08:43:03.848Z,99.99
2019-04-27T08:44:03.829Z,99.99
2019-04-27T08:45:03.812Z,99.99
2019-04-27T08:46:03.786Z,99.99
2019-04-27T08:47:03.764Z,99.99
2019-04-27T08:48:03.743Z,99.99
2019-04-27T08:49:03.733Z,99.99
2019-04-27T08:50:03.701Z,99.99
2019-04-27T08:51:03.690Z,99.99
2019-04-27T08:52:03.660Z,99.99
2019-04-27T08:53:03.638Z,99.99
2019-04-27T08:54:03.624Z,99.99
2019-04-27T08:55:03.598Z,99.99
2019-04-27T08:56:03.581Z,99.99
2019-04-27T08:57:03.559Z,99.99
2019-04-27T08:58:03.549Z,99.99
2019-04-27T08:59:03.519Z,99.99
2019-04-27T09:00:03.500Z,99.99
2019-04-27T09:01:03.477Z,99.99
2019-04-27T09:02:03.460Z,99.99
2019-04-27T09:03:03.439Z,99.99
2019-04-27T09:04:03.421Z,99.99
2019-04-27T09:05:03.400Z,99.99
2019-04-27T09:06:03.375Z,99.99
2019-04-27T09:07:03.391Z,99.99
2019-04-27T09:08:03.349Z,99.99
2019-04-27T09:09:03.307Z,99.99
2019-04-27T09:10:03.291Z,99.99
2019-04-27T09:11:03.270Z,99.99
2019-04-27T09:12:03.252Z,99.99
2019-04-27T09:13:03.230Z,99.99
2019-04-27T09:14:03.211Z,99.99
2019-04-27T09:15:03.192Z,99.99
2019-04-27T09:16:03.166Z,99.99
2019-04-27T09:17:03.162Z,99.99
2019-04-27T09:18:03.125Z,99.99
2019-04-27T09:19:03.101Z,99.99
2019-04-27T09:20:03.088Z,99.99
2019-04-27T09:21:03.060Z,99.99
2019-04-27T09:22:12.428Z,99.99
2019-04-27T09:23:03.019Z,99.99
2019-04-27T09:24:02.998Z,99.99
2019-04-27T09:25:02.983Z,99.99
2019-04-27T09:26:02.965Z,99.99
2019-04-27T09:27:02.937Z,99.99
2019-04-27T09:28:02.917Z,99.99
2019-04-27T09:29:02.897Z,99.99
2019-04-27T09:30:02.874Z,99.99
2019-04-27T09:31:02.856Z,99.99
2019-04-27T09:32:02.835Z,99.99
2019-04-27T09:33:02.812Z,99.99
2019-04-27T09:34:02.794Z,99.99
2019-04-27T09:35:02.775Z,99.99
2019-04-27T09:36:02.757Z,99.99
2019-04-27T09:37:02.744Z,99.99
2019-04-27T09:38:02.711Z,99.99
2019-04-27T09:39:02.693Z,99.99
2019-04-27T09:40:02.669Z,99.99
2019-04-27T09:41:02.656Z,99.99
2019-04-27T09:42:02.632Z,99.99
2019-04-27T09:43:02.614Z,99.99
2019-04-27T09:44:02.627Z,99.99
2019-04-27T09:45:02.572Z,99.99
2019-04-27T09:46:02.560Z,99.99
2019-04-27T09:47:02.526Z,99.99
2019-04-27T09:48:02.505Z,99.99
2019-04-27T09:49:02.496Z,99.99
2019-04-27T09:50:02.467Z,99.99
2019-04-27T09:51:02.459Z,99.99
2019-04-27T09:52:02.424Z,99.99
2019-04-27T09:53:02.405Z,99.99
2019-04-27T09:54:02.385Z,99.99
2019-04-27T09:55:02.361Z,99.99
2019-04-27T09:56:02.345Z,99.99
2019-04-27T09:57:02.324Z,99.99
2019-04-27T09:58:02.302Z,99.99
2019-04-27T09:59:02.299Z,99.99
2019-04-27T10:00:02.261Z,99.99
2019-04-27T10:01:02.240Z,99.99
2019-04-27T10:02:02.220Z,99.99
2019-04-27T10:03:02.199Z,99.99
2019-04-27T10:04:02.175Z,99.99
2019-04-27T10:05:02.156Z,99.99
2019-04-27T10:06:02.138Z,99.99
2019-04-27T10:07:02.121Z,99.99
2019-04-27T10:08:02.096Z,99.99
2019-04-27T10:09:02.072Z,99.99
2019-04-27T10:10:02.054Z,99.99
2019-04-27T10:11:02.034Z,99.99
2019-04-27T10:12:02.012Z,99.99
2019-04-27T10:13:02.022Z,99.99
2019-04-27T10:14:01.982Z,99.99
2019-04-27T10:15:01.951Z,99.99
2019-04-27T10:16:01.959Z,99.99
2019-04-27T10:17:01.905Z,99.99
2019-04-27T10:18:01.885Z,99.99
2019-04-27T10:19:01.865Z,99.99
2019-04-27T10:20:01.851Z,99.99
2019-04-27T10:21:02.315Z,99.99
2019-04-27T10:22:01.805Z,99.99
2019-04-27T10:23:01.800Z,99.99
2019-04-27T10:24:01.770Z,99.99
2019-04-27T10:25:01.748Z,99.99
2019-04-27T10:26:01.722Z,99.99
2019-04-27T10:27:01.703Z,99.99
2019-04-27T10:28:01.688Z,99.99
2019-04-27T10:29:01.673Z,99.99
2019-04-27T10:30:01.640Z,99.99
2019-04-27T10:31:01.619Z,99.99
2019-04-27T10:32:01.603Z,99.99
2019-04-27T10:33:01.580Z,99.99
2019-04-27T10:34:01.568Z,99.99
2019-04-27T10:35:01.541Z,99.99
2019-04-27T10:36:01.528Z,99.99
2019-04-27T10:37:01.507Z,99.99
2019-04-27T10:38:01.481Z,99.99
2019-04-27T10:39:01.453Z,99.99
2019-04-27T10:40:01.438Z,99.99
2019-04-27T10:41:01.419Z,99.99
2019-04-27T10:42:01.397Z,99.99
2019-04-27T10:43:01.386Z,99.99
2019-04-27T10:44:01.355Z,99.99
2019-04-27T10:45:01.327Z,99.99
2019-04-27T10:46:01.310Z,99.99
2019-04-27T10:47:01.288Z,99.99
2019-04-27T10:48:01.284Z,99.99
2019-04-27T10:49:01.247Z,99.99
2019-04-27T10:50:01.226Z,99.99
2019-04-27T10:51:01.247Z,99.99
2019-04-27T10:52:01.185Z,99.99
2019-04-27T10:53:01.168Z,99.99
2019-04-27T10:54:01.145Z,99.99
2019-04-27T10:55:01.133Z,99.99
2019-04-27T10:56:01.116Z,99.99
2019-04-27T10:57:01.085Z,99.99
2019-04-27T10:58:01.064Z,99.99
2019-04-27T10:59:01.043Z,99.99
2019-04-27T11:00:01.022Z,99.99
2019-04-27T11:01:00.999Z,99.99
2019-04-27T11:02:00.995Z,99.99
2019-04-27T11:03:00.960Z,99.99
2019-04-27T11:04:00.943Z,99.99
2019-04-27T11:05:00.924Z,99.99
2019-04-27T11:06:00.902Z,99.99
2019-04-27T11:07:00.888Z,99.99
2019-04-27T11:08:00.859Z,99.99
2019-04-27T11:09:00.851Z,99.99
2019-04-27T11:10:00.822Z,99.99
2019-04-27T11:11:00.800Z,99.99
2019-04-27T11:12:00.787Z,99.99
2019-04-27T11:13:00.754Z,99.99
2019-04-27T11:14:01.131Z,99.99
2019-04-27T11:15:00.716Z,99.99
2019-04-27T11:16:00.692Z,99.99
2019-04-27T11:17:00.669Z,99.99
2019-04-27T11:18:00.652Z,99.99
2019-04-27T11:19:00.635Z,99.99
2019-04-27T11:20:02.743Z,99.99
2019-04-27T11:21:00.589Z,99.99
2019-04-27T11:22:00.569Z,99.99
2019-04-27T11:23:06.988Z,99.99
2019-04-27T11:24:00.536Z,99.99
2019-04-27T11:25:00.520Z,99.99
2019-04-27T11:26:02.458Z,99.99
2019-04-27T11:27:00.465Z,99.99
2019-04-27T11:28:00.451Z,99.99
2019-04-27T11:29:00.422Z,99.99
2019-04-27T11:30:00.411Z,99.99
2019-04-27T11:31:00.382Z,99.99
2019-04-27T11:32:00.379Z,99.99
2019-04-27T11:33:00.338Z,99.99
2019-04-27T11:34:00.348Z,99.99
2019-04-27T11:35:00.295Z,99.99
2019-04-27T11:36:00.310Z,99.99
2019-04-27T11:37:00.257Z,99.99
2019-04-27T11:38:00.554Z,99.99
2019-04-27T11:39:00.212Z,99.99
2019-04-27T11:40:00.202Z,99.99
2019-04-27T11:41:00.179Z,99.99
2019-04-27T11:42:00.159Z,99.99
2019-04-27T11:43:00.506Z,99.99
2019-04-27T11:44:00.120Z,99.99
2019-04-27T11:45:00.115Z,99.99
2019-04-27T11:46:00.065Z,99.99
2019-04-27T11:47:00.782Z,99.99
2019-04-27T11:48:00.344Z,99.99
2019-04-27T11:49:00.055Z,99.99
2019-04-27T11:50:00.296Z,99.99
2019-04-27T11:50:59.959Z,99.99
2019-04-27T11:51:59.987Z,99.99
2019-04-27T11:52:59.918Z,99.99
2019-04-27T11:53:59.922Z,99.99
2019-04-27T11:54:59.892Z,99.99
2019-04-27T11:56:01.589Z,99.99
2019-04-27T11:57:00.151Z,99.99
2019-04-27T11:57:59.818Z,99.99
2019-04-27T11:59:00.730Z,99.99
2019-04-27T11:59:59.771Z,99.99
2019-04-27T12:00:59.756Z,99.99
2019-04-27T12:01:59.728Z,99.99
2019-04-27T12:02:59.708Z,99.99
2019-04-27T12:04:00.020Z,99.99
2019-04-27T12:04:59.672Z,99.99
2019-04-27T12:06:00.373Z,99.99
2019-04-27T12:06:59.628Z,99.99
2019-04-27T12:07:59.601Z,99.99
2019-04-27T12:08:59.579Z,99.99
2019-04-27T12:09:59.582Z,99.99
2019-04-27T12:10:59.555Z,99.99
2019-04-27T12:12:12.656Z,99.99
2019-04-27T12:12:59.507Z,99.99
2019-04-27T12:13:59.475Z,99.99
2019-04-27T12:14:59.454Z,99.99
2019-04-27T12:15:59.433Z,99.99
2019-04-27T12:16:59.410Z,99.99
2019-04-27T12:17:59.384Z,99.99
2019-04-27T12:18:59.368Z,99.99
2019-04-27T12:19:59.348Z,99.99
2019-04-27T12:20:59.320Z,99.99
2019-04-27T12:21:59.317Z,99.99
2019-04-27T12:22:59.298Z,99.99
2019-04-27T12:23:59.276Z,99.99
2019-04-27T12:24:59.236Z,99.99
2019-04-27T12:25:59.215Z,99.99
2019-04-27T12:26:59.192Z,99.99
2019-04-27T12:27:59.178Z,99.99
2019-04-27T12:28:59.155Z,99.99
2019-04-27T12:29:59.127Z,99.99
2019-04-27T12:30:59.125Z,99.99
2019-04-27T12:31:59.107Z,99.99
2019-04-27T12:32:59.068Z,99.99
2019-04-27T12:33:59.053Z,99.99
2019-04-27T12:34:59.033Z,99.99
2019-04-27T12:35:58.999Z,99.99
2019-04-27T12:36:58.979Z,99.99
2019-04-27T12:37:58.962Z,99.99
2019-04-27T12:38:58.947Z,99.99
2019-04-27T12:39:58.912Z,99.99
2019-04-27T12:40:58.892Z,99.75
2019-04-27T12:41:58.874Z,98.60
2019-04-27T12:42:58.851Z,99.99
2019-04-27T12:43:58.829Z,99.99
2019-04-27T12:44:58.810Z,99.99
2019-04-27T12:45:58.791Z,99.99
2019-04-27T12:47:02.626Z,99.99
2019-04-27T12:47:58.746Z,99.99
2019-04-27T12:48:58.723Z,99.99
2019-04-27T12:49:58.706Z,99.37
2019-04-27T12:50:58.687Z,99.99
2019-04-27T12:51:58.666Z,99.99